Aérodrome :
LOGIN :

S'inscrire | Disclaimer

   EN    FR    IT 

 










Légende :    VFR   VFR Marginal   IFR   IFR Intensif   IFR Très Intensif
Visi : 
Plafond : 
>= 8 km
>= 3000ft
5 à 8 km
1000 à 3000 ft
1500m à 5 km
500 à 1000 ft
800 à 1500m
200 à 500 ft
< 800m
< 200 ft
Symboles :   Orages  Brouillard  Fortes neiges  Fortes précipitations  Vent > 20 kt
SIGMETs :   Divers  Orages  Givrage  Turbulence  Onde Orograph.  Cendres Volcan.







- Altitude de l'aérodrome : 313 ft
- Code IATA : LEH
- Voir les cartes d'approche


LFOH - Le Havre Octeville

DERNIER METAR :
  • 190330Z AUTO 15005KT 4400 BR OVC002 06/06 Q1018

METARs EXPIRÉS :
  • 190300Z AUTO 16004KT 130V190 3300 BR OVC002 06/06 Q1019
  • 190230Z AUTO 16004KT 2800 BR OVC002 06/06 Q1019
  • 190200Z AUTO 16005KT 2900 BR OVC002 07/06 Q1019
  • 190130Z AUTO 16005KT 3500 BR OVC003 07/06 Q1019
  • 190100Z AUTO 15006KT 3300 BR OVC003 07/06 Q1019

TAF TAF LFOH
Valide du 18 à 12h jusqu'au 19 à 12h UTC


181100Z 1812/1912 14008KT 9999 BKN040
BECMG 1816/1818 OVC012
TEMPO 1818/1912 2000 DZRA OVC002
ATIS : +33 2 35 54 64 93
Pas de NOTAMs connus pour ce terrain.



MET'MAP, la Météo Aéronautique d'un coup d'oeil ! - Copyright ORBIFLY Décembre 2007 - Disclaimer

ORBIFLY MET'MAP TEAM :

Programmation & Développement : Alexandra Zaïnal
Conception & Développement : Baudouin d'Aumeries
Co-Programmation & Développement : Marc-Olivier Méhu
Soutien technique & logistique : Manuel Goepfert

Contact : metmap@orbifly.com




SOURCES & CREDITS :

   NOAA